Time;durP1;ratioP1;P1;durP2;ratioP2;P2;SDS_P1;SDS_P2;PMS_P1;PMS_P2;Temp;Humidity;BMP_temperature;BMP_pressure;BME280_temperature;BME280_humidity;BME280_pressure;Samples;Min_cycle;Max_cycle;Signal;HPM_P1;HPM_P2
2022/12/28 00:02:10;;;;;;;11.70;5.10;;;6.10;1.00;;;;;;4992700;28;20307;-49
2022/12/28 00:04:36;;;;;;;8.83;4.30;;;6.10;1.00;;;;;;4991604;28;20183;-49
2022/12/28 00:07:01;;;;;;;12.23;4.87;;;6.10;1.00;;;;;;4990881;28;20188;-50
2022/12/28 00:09:27;;;;;;;11.20;4.90;;;6.10;1.00;;;;;;4992141;28;20181;-49
2022/12/28 00:11:52;;;;;;;9.83;4.20;;;6.10;1.00;;;;;;4992365;28;20254;-50
2022/12/28 00:14:18;;;;;;;9.10;4.40;;;6.10;99.90;;;;;;4992527;28;20184;-49
2022/12/28 00:16:44;;;;;;;12.23;5.80;;;6.00;99.90;;;;;;4992474;28;20208;-50
2022/12/28 00:19:16;;;;;;;10.10;4.20;;;6.00;99.90;;;;;;4971196;28;20236;-49
2022/12/28 00:21:42;;;;;;;8.40;3.93;;;6.00;99.90;;;;;;4978207;28;20589;-50
2022/12/28 00:24:19;;;;;;;9.53;3.37;;;6.00;99.90;;;;;;4992316;28;20906;-50
2022/12/28 00:26:45;;;;;;;4.40;3.30;;;6.00;99.90;;;;;;4992792;28;20426;-50
2022/12/28 00:29:11;;;;;;;12.53;3.53;;;5.90;99.90;;;;;;4964684;28;21073;-50
2022/12/28 00:31:37;;;;;;;16.20;3.40;;;5.90;99.90;;;;;;4972978;28;20511;-50
2022/12/28 00:34:03;;;;;;;6.17;2.83;;;5.90;99.90;;;;;;4972732;28;20666;-49
2022/12/28 00:36:29;;;;;;;9.33;3.40;;;6.00;99.90;;;;;;4973330;28;20420;-50
2022/12/28 00:38:55;;;;;;;6.40;3.20;;;6.00;99.90;;;;;;4971856;28;21124;-49
2022/12/28 00:41:21;;;;;;;5.47;2.83;;;6.00;99.90;;;;;;4966061;28;20468;-48
2022/12/28 00:43:46;;;;;;;6.73;2.90;;;6.00;99.90;;;;;;4969337;28;20288;-49
2022/12/28 00:46:12;;;;;;;7.97;2.77;;;6.00;99.90;;;;;;4978796;28;20247;-49
2022/12/28 00:48:38;;;;;;;6.50;2.90;;;6.00;99.90;;;;;;4979102;28;20543;-49
2022/12/28 00:51:10;;;;;;;7.50;2.90;;;6.10;99.90;;;;;;4979039;28;20200;-49
2022/12/28 00:53:36;;;;;;;6.10;2.63;;;6.00;99.90;;;;;;4979203;28;20176;-49
2022/12/28 00:56:13;;;;;;;6.27;3.10;;;5.90;99.90;;;;;;4977974;28;20471;-49
2022/12/28 00:58:39;;;;;;;13.37;2.30;;;5.90;99.90;;;;;;4975715;28;20279;-49
2022/12/28 01:01:05;;;;;;;6.70;2.73;;;5.90;99.90;;;;;;4962940;28;20528;-49
2022/12/28 01:03:31;;;;;;;7.17;2.37;;;5.90;99.90;;;;;;4971943;28;20199;-49
2022/12/28 01:05:57;;;;;;;12.07;3.10;;;5.90;99.90;;;;;;4969941;28;20425;-58
2022/12/28 01:08:22;;;;;;;5.63;2.60;;;6.00;99.90;;;;;;4975416;28;20914;-48
2022/12/28 01:10:49;;;;;;;15.60;2.97;;;6.00;99.70;;;;;;4973570;28;21035;-49
2022/12/28 01:13:14;;;;;;;9.03;2.37;;;5.90;99.90;;;;;;4978039;28;20283;-49
2022/12/28 01:15:40;;;;;;;6.63;2.80;;;6.00;92.80;;;;;;4977657;28;21296;-49
2022/12/28 01:18:05;;;;;;;7.43;2.67;;;5.90;73.40;;;;;;4984433;28;20247;-49
2022/12/28 01:20:31;;;;;;;5.73;2.70;;;6.00;57.00;;;;;;4996276;28;20212;-49
2022/12/28 01:22:56;;;;;;;10.87;2.30;;;6.00;48.20;;;;;;4998322;28;20188;-48
2022/12/28 01:25:22;;;;;;;5.03;2.73;;;6.00;33.70;;;;;;4997349;28;20556;-49
2022/12/28 01:27:48;;;;;;;6.10;2.63;;;6.00;30.60;;;;;;4996680;28;20188;-49
2022/12/28 01:30:14;;;;;;;8.37;2.87;;;6.00;30.20;;;;;;4996081;28;20196;-47
2022/12/28 01:32:40;;;;;;;4.30;2.60;;;6.00;24.40;;;;;;4997234;28;20188;-50
2022/12/28 01:35:06;;;;;;;5.30;2.37;;;6.00;16.30;;;;;;4995221;28;20461;-49
2022/12/28 01:37:31;;;;;;;7.27;2.87;;;6.00;10.60;;;;;;4996288;28;20455;-49
2022/12/28 01:39:58;;;;;;;6.80;2.40;;;6.00;6.80;;;;;;4994821;28;20978;-49
2022/12/28 01:42:23;;;;;;;8.57;2.80;;;6.00;8.60;;;;;;4987713;28;20235;-48
2022/12/28 01:44:50;;;;;;;5.50;2.10;;;6.00;4.30;;;;;;4996344;28;20928;-49
2022/12/28 01:47:32;;;;;;;5.33;2.73;;;6.00;2.50;;;;;;4996952;28;20192;-48
2022/12/28 01:50:11;;;;;;;4.60;2.23;;;6.00;1.00;;;;;;4995398;28;20443;-48
2022/12/28 01:52:44;;;;;;;4.83;2.03;;;6.00;1.00;;;;;;4996638;28;20461;-49
2022/12/28 01:55:19;;;;;;;5.60;2.57;;;6.00;1.00;;;;;;4994214;28;20514;-48
2022/12/28 01:57:50;;;;;;;4.67;2.70;;;6.00;1.00;;;;;;4991816;28;20561;-49
2022/12/28 02:00:17;;;;;;;5.00;2.27;;;6.00;1.00;;;;;;4986961;28;20474;-51
2022/12/28 02:02:59;;;;;;;8.20;2.30;;;6.00;1.00;;;;;;4971040;28;20801;-49
2022/12/28 02:05:37;;;;;;;5.33;2.70;;;6.00;1.00;;;;;;4982913;28;20517;-48
2022/12/28 02:08:08;;;;;;;7.20;2.20;;;6.00;1.00;;;;;;4992951;28;20755;-48
2022/12/28 02:10:35;;;;;;;10.33;1.93;;;5.90;1.00;;;;;;4993517;28;20944;-48
2022/12/28 02:13:02;;;;;;;4.03;2.10;;;5.90;1.00;;;;;;4982959;28;20439;-48
2022/12/28 02:15:27;;;;;;;5.70;2.20;;;5.90;1.00;;;;;;4969544;28;20432;-48
2022/12/28 02:17:53;;;;;;;7.97;1.80;;;5.90;1.00;;;;;;4965622;28;20580;-49
2022/12/28 02:20:19;;;;;;;7.87;2.30;;;5.90;1.00;;;;;;4979876;28;20283;-48
2022/12/28 02:23:12;;;;;;;6.20;2.07;;;5.90;1.00;;;;;;4988089;28;20771;-48
2022/12/28 02:25:52;;;;;;;9.10;2.47;;;5.90;1.00;;;;;;4989887;28;20488;-48
2022/12/28 02:28:48;;;;;;;6.87;2.10;;;5.90;1.00;;;;;;4979032;28;20451;-54
2022/12/28 02:31:26;;;;;;;9.70;2.60;;;5.90;1.00;;;;;;4992452;28;20439;-49
2022/12/28 02:34:01;;;;;;;8.17;2.30;;;5.80;12.20;;;;;;4970626;28;20522;-48
2022/12/28 02:36:33;;;;;;;8.17;2.10;;;5.80;27.00;;;;;;4990466;28;20443;-48
2022/12/28 02:39:07;;;;;;;2.97;2.27;;;5.70;51.30;;;;;;4993640;28;20481;-48
2022/12/28 02:41:35;;;;;;;7.37;2.60;;;5.70;70.50;;;;;;4991757;28;20552;-48
2022/12/28 02:44:01;;;;;;;7.43;2.57;;;5.70;61.50;;;;;;4990861;28;20474;-47
2022/12/28 02:52:45;;;;;;;5.80;1.90;;;5.70;99.90;;;;;;4977633;28;21006;-48
2022/12/28 02:58:37;;;;;;;9.80;2.70;;;5.60;99.90;;;;;;4992209;28;20478;-49
2022/12/28 03:01:16;;;;;;;7.43;2.63;;;5.60;99.90;;;;;;4990872;28;20846;-49
2022/12/28 03:04:07;;;;;;;8.77;2.70;;;5.50;99.90;;;;;;4966975;28;20444;-49
2022/12/28 03:09:42;;;;;;;9.67;2.83;;;5.50;1.00;;;;;;4992568;28;20450;-49
2022/12/28 03:12:18;;;;;;;9.87;2.80;;;5.40;1.00;;;;;;4990490;28;20447;-49
2022/12/28 03:14:52;;;;;;;8.63;2.90;;;5.30;1.00;;;;;;4989040;28;20493;-49
2022/12/28 03:31:30;;;;;;;9.40;4.07;;;5.30;1.00;;;;;;4933894;29;20448;-49
2022/12/28 03:34:08;;;;;;;5.50;3.33;;;5.30;1.00;;;;;;4986800;28;20439;-50
2022/12/28 03:36:57;;;;;;;9.97;3.60;;;5.30;1.00;;;;;;4984054;28;20451;-49
2022/12/28 03:39:43;;;;;;;11.20;3.93;;;5.30;1.00;;;;;;4961327;28;20443;-49
2022/12/28 03:45:28;;;;;;;9.20;3.40;;;5.30;99.90;;;;;;4980681;28;20423;-49
2022/12/28 03:47:56;;;;;;;7.10;3.20;;;5.30;99.90;;;;;;4990951;28;20486;-49
2022/12/28 03:50:22;;;;;;;6.93;3.50;;;5.30;99.90;;;;;;4992956;28;20478;-50
2022/12/28 03:52:50;;;;;;;6.73;3.73;;;5.30;99.90;;;;;;4992380;28;20471;-50
2022/12/28 03:55:16;;;;;;;5.53;3.37;;;5.30;1.00;;;;;;4992911;28;20418;-49
2022/12/28 03:57:42;;;;;;;14.93;3.70;;;5.30;1.00;;;;;;4989755;28;20447;-49
2022/12/28 04:00:09;;;;;;;10.00;3.23;;;5.30;83.20;;;;;;4999053;28;20505;-49
2022/12/28 04:02:36;;;;;;;10.30;3.63;;;5.30;99.90;;;;;;4987119;28;20275;-49
2022/12/28 04:05:02;;;;;;;10.20;3.90;;;5.30;99.90;;;;;;4973380;28;20409;-50
2022/12/28 04:07:27;;;;;;;5.00;3.07;;;5.20;99.90;;;;;;4989278;28;20454;-50
2022/12/28 04:09:53;;;;;;;5.37;2.87;;;5.20;1.00;;;;;;4991798;28;20176;-50
2022/12/28 04:12:18;;;;;;;5.93;3.30;;;5.20;99.90;;;;;;4990725;28;20204;-50
2022/12/28 04:14:44;;;;;;;8.10;2.90;;;5.20;1.00;;;;;;4991734;28;20228;-51
2022/12/28 04:17:09;;;;;;;5.90;2.83;;;5.20;99.90;;;;;;4990570;28;20226;-50
2022/12/28 04:19:35;;;;;;;7.10;3.30;;;5.20;99.90;;;;;;4991935;28;20187;-50
2022/12/28 04:22:01;;;;;;;5.00;3.37;;;5.20;1.00;;;;;;4991463;28;20214;-50
2022/12/28 04:24:26;;;;;;;7.20;3.20;;;5.20;99.90;;;;;;4991646;28;20192;-50
2022/12/28 04:26:52;;;;;;;8.50;3.47;;;5.20;1.00;;;;;;4989778;28;20666;-50
2022/12/28 04:29:17;;;;;;;5.20;3.10;;;5.20;99.90;;;;;;4991165;28;20299;-50
2022/12/28 04:31:43;;;;;;;6.87;3.43;;;5.20;99.90;;;;;;4973365;28;20195;-50
2022/12/28 04:34:08;;;;;;;6.67;3.47;;;5.10;1.00;;;;;;4991634;28;20181;-50
2022/12/28 04:36:34;;;;;;;6.13;3.30;;;5.20;99.90;;;;;;4971721;28;20196;-50
2022/12/28 04:39:00;;;;;;;8.73;3.60;;;5.20;99.90;;;;;;4992052;28;20196;-50
2022/12/28 04:41:25;;;;;;;6.50;3.60;;;5.20;1.00;;;;;;4991094;28;20303;-50
2022/12/28 04:43:54;;;;;;;3.33;3.00;;;5.10;1.00;;;;;;4983832;28;20188;-50
2022/12/28 04:46:19;;;;;;;9.03;3.23;;;5.20;99.90;;;;;;4988292;28;20192;-51
2022/12/28 04:48:45;;;;;;;6.30;3.43;;;5.10;1.00;;;;;;4988143;28;20443;-50
2022/12/28 04:51:20;;;;;;;5.77;3.63;;;5.10;99.90;;;;;;4990288;28;20275;-51
2022/12/28 04:53:45;;;;;;;7.87;3.13;;;5.20;99.90;;;;;;4990882;28;20743;-50
2022/12/28 04:56:12;;;;;;;9.93;3.37;;;5.20;99.90;;;;;;4981617;28;20435;-51
2022/12/28 04:58:38;;;;;;;6.40;3.40;;;5.20;1.00;;;;;;4982735;28;20220;-59
2022/12/28 05:01:06;;;;;;;6.53;2.63;;;5.10;1.00;;;;;;4990459;28;20509;-51
2022/12/28 05:03:33;;;;;;;5.23;3.07;;;5.10;24.90;;;;;;4988267;28;20210;-51
2022/12/28 05:06:03;;;;;;;8.13;3.00;;;5.00;1.00;;;;;;4988425;28;20472;-51
2022/12/28 05:08:34;;;;;;;6.80;3.13;;;5.10;99.90;;;;;;4989934;28;20493;-51
2022/12/28 05:11:01;;;;;;;7.37;3.50;;;5.10;1.00;;;;;;4989278;28;20456;-51
2022/12/28 05:13:26;;;;;;;6.50;3.30;;;5.10;1.00;;;;;;4990634;28;20436;-51
2022/12/28 05:15:52;;;;;;;6.80;3.10;;;5.10;1.00;;;;;;4976860;28;20514;-51
2022/12/28 05:18:17;;;;;;;6.47;3.13;;;5.10;99.90;;;;;;4990166;28;20240;-52
2022/12/28 05:20:43;;;;;;;9.47;3.70;;;5.10;99.90;;;;;;4990979;28;20216;-51
2022/12/28 05:23:09;;;;;;;7.40;4.07;;;5.10;99.90;;;;;;4990453;28;20241;-51
2022/12/28 05:25:34;;;;;;;8.63;3.60;;;5.10;99.90;;;;;;4991443;28;20275;-52
2022/12/28 05:28:00;;;;;;;12.80;3.80;;;5.10;99.90;;;;;;4968413;28;20327;-51
2022/12/28 05:30:25;;;;;;;7.80;3.60;;;5.10;99.90;;;;;;4979119;28;20189;-51
2022/12/28 05:32:51;;;;;;;8.10;4.33;;;5.10;1.00;;;;;;4994760;28;20187;-52
2022/12/28 05:35:17;;;;;;;7.97;3.20;;;5.10;1.00;;;;;;4994606;28;20311;-52
2022/12/28 05:37:42;;;;;;;6.33;3.40;;;5.10;1.00;;;;;;4994569;28;20250;-52
2022/12/28 05:40:08;;;;;;;5.70;3.77;;;5.20;1.00;;;;;;4993369;28;20188;-51
2022/12/28 05:42:35;;;;;;;9.00;3.90;;;5.20;1.00;;;;;;4995083;28;20247;-53
2022/12/28 05:45:00;;;;;;;8.27;3.87;;;5.20;1.00;;;;;;4993710;28;20475;-52
2022/12/28 05:47:26;;;;;;;5.70;4.00;;;5.20;1.00;;;;;;4994828;28;20454;-52
2022/12/28 05:49:52;;;;;;;7.60;3.20;;;5.20;1.00;;;;;;4992893;28;20243;-52
2022/12/28 05:52:17;;;;;;;6.97;3.40;;;5.20;1.00;;;;;;4994044;28;20545;-52
2022/12/28 05:54:43;;;;;;;6.30;3.93;;;5.30;1.00;;;;;;4993609;28;20203;-53
2022/12/28 05:57:09;;;;;;;7.20;3.37;;;5.30;1.00;;;;;;4994885;28;20211;-53
2022/12/28 05:59:34;;;;;;;7.23;3.53;;;5.30;1.00;;;;;;4992361;28;20204;-53
2022/12/28 06:02:00;;;;;;;4.07;3.00;;;5.30;1.00;;;;;;4993890;28;20216;-54
2022/12/28 06:04:26;;;;;;;6.30;3.57;;;5.30;1.00;;;;;;4990337;28;20196;-54
2022/12/28 06:06:53;;;;;;;4.57;3.30;;;5.20;1.00;;;;;;4993691;28;20967;-54
2022/12/28 06:09:19;;;;;;;4.97;3.43;;;5.20;1.00;;;;;;4992267;28;20196;-55
2022/12/28 06:11:45;;;;;;;5.40;3.50;;;5.20;1.00;;;;;;4993260;28;20467;-54
2022/12/28 06:14:10;;;;;;;7.20;3.70;;;5.20;1.00;;;;;;4992806;28;20455;-54
2022/12/28 06:16:39;;;;;;;7.23;3.40;;;5.20;1.00;;;;;;4992088;28;20467;-55
2022/12/28 06:19:10;;;;;;;14.63;3.80;;;5.20;1.00;;;;;;4971856;28;20360;-54
2022/12/28 06:21:38;;;;;;;6.53;4.13;;;5.30;1.00;;;;;;4973949;28;20480;-54
2022/12/28 06:24:04;;;;;;;7.57;3.90;;;5.30;1.00;;;;;;4969333;28;20440;-54
2022/12/28 06:26:32;;;;;;;5.60;3.30;;;5.30;1.00;;;;;;4973157;28;20452;-54
2022/12/28 06:29:00;;;;;;;9.30;3.77;;;5.40;1.00;;;;;;4977787;28;20534;-53
2022/12/28 06:31:31;;;;;;;6.20;3.87;;;5.40;1.00;;;;;;4972808;28;20452;-54
2022/12/28 06:33:59;;;;;;;4.43;3.00;;;5.40;1.00;;;;;;4968514;28;20476;-54
2022/12/28 06:36:44;;;;;;;5.83;2.93;;;5.40;1.00;;;;;;4969663;28;20999;-53
2022/12/28 06:39:12;;;;;;;4.90;3.20;;;5.40;1.00;;;;;;4967850;28;20480;-53
2022/12/28 06:41:39;;;;;;;2.83;2.60;;;5.50;1.00;;;;;;4974164;28;20476;-54
2022/12/28 06:44:06;;;;;;;4.00;3.40;;;5.50;1.00;;;;;;4974786;28;20942;-53
2022/12/28 06:46:31;;;;;;;4.10;3.27;;;5.50;1.00;;;;;;4972901;28;21490;-53
2022/12/28 06:48:57;;;;;;;6.40;3.20;;;5.50;1.00;;;;;;4972241;28;20458;-53
2022/12/28 06:51:23;;;;;;;8.60;4.10;;;5.50;1.00;;;;;;4972748;28;20571;-54
2022/12/28 06:53:50;;;;;;;3.83;3.30;;;5.60;1.00;;;;;;4973114;28;20464;-53
2022/12/28 06:56:18;;;;;;;3.43;3.13;;;5.60;1.00;;;;;;4974228;28;20188;-53
2022/12/28 06:58:45;;;;;;;7.40;3.10;;;5.60;1.00;;;;;;4973201;28;20909;-53
2022/12/28 07:01:12;;;;;;;4.20;3.40;;;5.60;1.00;;;;;;4971499;28;20922;-53
2022/12/28 07:03:38;;;;;;;4.30;3.60;;;5.60;1.00;;;;;;4971690;28;20452;-53
2022/12/28 07:06:05;;;;;;;5.30;3.60;;;5.70;1.00;;;;;;4972104;28;20940;-52
2022/12/28 07:08:31;;;;;;;4.20;3.80;;;5.60;1.00;;;;;;4972842;28;20284;-53
2022/12/28 07:11:06;;;;;;;8.13;3.50;;;5.60;1.00;;;;;;4972954;28;20448;-54
2022/12/28 07:13:32;;;;;;;5.00;3.43;;;5.70;1.00;;;;;;4954138;28;20496;-53
2022/12/28 07:16:05;;;;;;;5.47;3.90;;;5.70;1.00;;;;;;4968658;28;20459;-53
2022/12/28 07:18:32;;;;;;;4.80;3.37;;;5.70;1.00;;;;;;4983043;28;21047;-53
2022/12/28 07:20:59;;;;;;;5.10;4.13;;;5.70;1.00;;;;;;4990664;28;21472;-54
2022/12/28 07:23:28;;;;;;;4.00;3.60;;;5.80;1.00;;;;;;4992130;28;20497;-52
2022/12/28 07:25:55;;;;;;;4.97;4.17;;;5.80;1.00;;;;;;4990887;28;20906;-54
2022/12/28 07:28:20;;;;;;;4.40;4.00;;;5.80;1.00;;;;;;4990626;28;20542;-55
2022/12/28 07:30:46;;;;;;;4.67;3.70;;;5.80;1.00;;;;;;4989054;28;20530;-54
2022/12/28 07:33:11;;;;;;;5.73;4.13;;;5.80;1.00;;;;;;4977016;28;20177;-55
2022/12/28 07:35:37;;;;;;;6.33;4.33;;;5.80;1.00;;;;;;4987968;28;20188;-54
2022/12/28 07:38:02;;;;;;;7.00;4.57;;;5.90;5.60;;;;;;4990732;28;20192;-60
2022/12/28 07:40:28;;;;;;;8.10;4.40;;;5.90;14.80;;;;;;4992412;28;20646;-56
2022/12/28 07:42:54;;;;;;;5.43;3.97;;;6.00;20.80;;;;;;4991339;28;20235;-55
2022/12/28 07:45:19;;;;;;;4.57;3.70;;;6.00;24.80;;;;;;4992087;28;20315;-55
2022/12/28 07:47:45;;;;;;;4.40;4.00;;;6.00;28.40;;;;;;4992413;28;20646;-56
2022/12/28 07:50:11;;;;;;;5.80;4.27;;;6.00;32.70;;;;;;4990534;28;20556;-56
2022/12/28 07:52:36;;;;;;;4.17;3.70;;;6.00;41.10;;;;;;4990907;28;20323;-55
2022/12/28 07:55:02;;;;;;;4.63;3.90;;;6.10;49.20;;;;;;4990578;28;20192;-55
2022/12/28 07:57:28;;;;;;;4.30;3.90;;;6.20;56.40;;;;;;4992899;28;20276;-59
2022/12/28 07:59:54;;;;;;;7.73;3.70;;;6.20;60.30;;;;;;4990320;28;20538;-61
2022/12/28 08:02:19;;;;;;;5.27;4.30;;;6.20;61.50;;;;;;4989405;28;20248;-62
2022/12/28 08:04:45;;;;;;;5.00;4.03;;;6.30;62.70;;;;;;4985221;28;20204;-65
2022/12/28 08:07:10;;;;;;;3.77;3.47;;;6.30;67.60;;;;;;4992124;28;20180;-63
2022/12/28 08:09:36;;;;;;;5.90;3.93;;;6.30;70.80;;;;;;4988839;28;20197;-66
2022/12/28 08:12:02;;;;;;;4.77;4.17;;;6.30;77.40;;;;;;4990869;28;20246;-66
2022/12/28 08:14:29;;;;;;;4.80;4.27;;;6.40;83.60;;;;;;4991540;28;20618;-73
2022/12/28 08:16:55;;;;;;;3.80;3.50;;;6.50;87.40;;;;;;4991294;28;20219;-68
2022/12/28 08:19:20;;;;;;;7.43;4.40;;;6.50;90.20;;;;;;4992939;28;20490;-69
2022/12/28 08:21:46;;;;;;;6.27;4.40;;;6.50;92.70;;;;;;4975073;28;20215;-68
2022/12/28 08:24:17;;;;;;;6.70;4.73;;;6.50;95.10;;;;;;4970855;28;20200;-72
2022/12/28 08:26:44;;;;;;;5.43;4.43;;;6.50;98.00;;;;;;4992269;28;20244;-69
2022/12/28 08:29:13;;;;;;;5.37;4.77;;;6.60;99.90;;;;;;4988505;28;20485;-69
2022/12/28 08:31:41;;;;;;;6.60;5.20;;;6.60;99.90;;;;;;4992552;28;20482;-68
2022/12/28 08:34:12;;;;;;;5.10;4.53;;;6.60;99.90;;;;;;4993808;28;20458;-68
2022/12/28 08:36:38;;;;;;;6.40;5.00;;;6.70;99.90;;;;;;4975291;28;20480;-72
2022/12/28 08:39:04;;;;;;;7.23;5.30;;;6.70;99.90;;;;;;4989693;28;20502;-71
2022/12/28 08:41:30;;;;;;;8.07;5.20;;;6.70;99.90;;;;;;4993136;28;20219;-71
2022/12/28 08:43:56;;;;;;;6.53;5.13;;;6.80;99.90;;;;;;4992045;28;20470;-70
2022/12/28 08:46:24;;;;;;;6.10;5.17;;;6.80;99.90;;;;;;4994570;28;20419;-72
2022/12/28 08:48:52;;;;;;;7.20;5.73;;;6.80;99.90;;;;;;4989985;28;20816;-70
2022/12/28 08:51:19;;;;;;;9.73;6.40;;;6.80;99.90;;;;;;4990372;28;20568;-67
2022/12/28 08:53:45;;;;;;;7.20;5.93;;;6.90;99.90;;;;;;4992540;28;20419;-67
2022/12/28 08:56:13;;;;;;;8.10;6.50;;;6.90;99.90;;;;;;4991017;28;20451;-69
2022/12/28 08:58:41;;;;;;;8.37;6.90;;;7.00;99.90;;;;;;4990372;28;20429;-63
2022/12/28 09:01:13;;;;;;;9.33;6.70;;;7.00;99.90;;;;;;4990205;28;21051;-65
2022/12/28 09:03:43;;;;;;;8.40;6.40;;;7.00;99.90;;;;;;4992130;28;20439;-66
2022/12/28 09:06:14;;;;;;;8.93;7.23;;;7.00;99.90;;;;;;4982826;28;20451;-68
2022/12/28 09:08:40;;;;;;;9.40;7.00;;;7.10;99.90;;;;;;4990441;28;20517;-68
2022/12/28 09:11:09;;;;;;;11.40;7.90;;;7.10;99.90;;;;;;4995305;28;20455;-72
2022/12/28 09:13:35;;;;;;;14.50;8.30;;;7.10;99.90;;;;;;4990981;28;20196;-72
2022/12/28 09:16:07;;;;;;;14.13;7.70;;;7.20;99.90;;;;;;4983889;28;20586;-69
2022/12/28 09:18:34;;;;;;;12.73;8.30;;;7.20;99.90;;;;;;4979422;28;20509;-71
2022/12/28 09:21:12;;;;;;;11.47;9.03;;;7.30;99.90;;;;;;4987151;28;20481;-75
2022/12/28 09:23:38;;;;;;;11.03;8.80;;;7.30;99.90;;;;;;4960607;28;20424;-74
2022/12/28 09:26:10;;;;;;;11.60;9.37;;;7.40;99.90;;;;;;4978434;28;20436;-73
2022/12/28 09:28:36;;;;;;;14.93;9.97;;;7.40;99.90;;;;;;4977702;28;20487;-71
2022/12/28 09:31:04;;;;;;;11.70;9.40;;;7.40;99.90;;;;;;4992517;28;20530;-71
2022/12/28 09:36:15;;;;;;;11.87;9.30;;;7.40;99.90;;;;;;4996070;28;20461;-73
2022/12/28 09:38:42;;;;;;;12.13;8.87;;;7.50;99.90;;;;;;4985786;28;20948;-70
2022/12/28 09:41:25;;;;;;;12.30;10.00;;;7.50;99.90;;;;;;4992642;28;20967;-65
2022/12/28 09:44:03;;;;;;;11.50;9.43;;;7.50;99.90;;;;;;4985136;28;20522;-62
2022/12/28 09:46:32;;;;;;;11.97;9.77;;;7.50;99.90;;;;;;4994140;28;20443;-60
2022/12/28 09:48:59;;;;;;;12.80;9.37;;;7.60;99.90;;;;;;4994160;28;20489;-58
2022/12/28 09:51:33;;;;;;;12.33;9.27;;;7.60;98.10;;;;;;4994531;28;20471;-59
2022/12/28 09:53:59;;;;;;;11.73;9.07;;;7.70;94.60;;;;;;4987654;28;20842;-58
2022/12/28 09:56:40;;;;;;;10.27;8.50;;;7.70;88.50;;;;;;4991913;28;20509;-56
2022/12/28 09:59:07;;;;;;;11.33;8.67;;;7.70;77.40;;;;;;4982653;28;20567;-56
2022/12/28 10:01:36;;;;;;;10.47;8.07;;;7.80;61.80;;;;;;4990290;28;20482;-56
2022/12/28 10:04:02;;;;;;;10.80;8.53;;;7.80;49.50;;;;;;4986540;28;20542;-56
2022/12/28 10:06:34;;;;;;;9.10;7.57;;;7.80;41.10;;;;;;4988024;28;20579;-56
2022/12/28 10:09:01;;;;;;;9.70;8.40;;;7.80;34.40;;;;;;4984401;28;20448;-56
2022/12/28 10:11:33;;;;;;;10.00;8.00;;;7.90;32.60;;;;;;4969751;28;20440;-56
2022/12/28 10:14:02;;;;;;;9.20;7.47;;;7.90;30.00;;;;;;4989729;28;20486;-56
2022/12/28 10:16:35;;;;;;;8.40;7.60;;;7.90;29.00;;;;;;4993468;28;20451;-55
2022/12/28 10:19:01;;;;;;;9.17;8.07;;;7.90;27.90;;;;;;4988747;28;20515;-56
2022/12/28 10:21:31;;;;;;;9.40;7.13;;;7.90;29.60;;;;;;4987667;28;20467;-56
2022/12/28 10:23:57;;;;;;;9.33;7.67;;;8.00;30.50;;;;;;4989153;28;20439;-57
2022/12/28 10:26:23;;;;;;;17.40;8.77;;;8.00;29.70;;;;;;4993193;28;20443;-56
2022/12/28 10:28:55;;;;;;;10.47;8.00;;;8.00;33.70;;;;;;4989023;28;20538;-56
2022/12/28 10:31:30;;;;;;;9.03;7.87;;;8.00;30.90;;;;;;4999525;28;20430;-55
2022/12/28 10:33:55;;;;;;;10.00;8.20;;;8.00;28.20;;;;;;4991521;28;20474;-56
2022/12/28 10:36:22;;;;;;;8.70;7.57;;;8.00;25.40;;;;;;4994685;28;20451;-55
2022/12/28 10:38:51;;;;;;;9.00;7.37;;;8.00;24.20;;;;;;4993949;28;20498;-56
2022/12/28 10:41:18;;;;;;;8.23;7.33;;;8.10;25.60;;;;;;4992657;28;20833;-61
2022/12/28 10:43:48;;;;;;;11.20;7.73;;;8.10;29.00;;;;;;4980904;28;20936;-56
2022/12/28 10:46:17;;;;;;;10.20;8.67;;;8.10;28.60;;;;;;4983188;28;20488;-56
2022/12/28 10:48:52;;;;;;;11.37;7.60;;;8.10;29.40;;;;;;4992052;28;20450;-55
2022/12/28 10:51:20;;;;;;;9.40;7.80;;;8.10;26.10;;;;;;4975176;28;20873;-55
2022/12/28 10:53:53;;;;;;;11.70;8.70;;;8.10;23.70;;;;;;4992152;28;20613;-55
2022/12/28 10:56:25;;;;;;;9.70;7.50;;;8.10;20.80;;;;;;4990945;28;20451;-55
2022/12/28 10:58:53;;;;;;;10.13;8.03;;;8.10;22.20;;;;;;4989919;28;20494;-55
2022/12/28 11:01:25;;;;;;;10.30;8.50;;;8.20;24.60;;;;;;4983823;28;20471;-55
2022/12/28 11:03:54;;;;;;;9.13;7.23;;;8.20;17.50;;;;;;4993193;28;20431;-56
2022/12/28 11:06:23;;;;;;;8.70;7.80;;;8.20;12.50;;;;;;4992731;28;20538;-55
2022/12/28 11:09:20;;;;;;;9.37;7.50;;;8.20;7.90;;;;;;4983912;28;20484;-55
2022/12/28 11:11:47;;;;;;;8.50;7.13;;;8.30;4.00;;;;;;4991746;28;20459;-54
2022/12/28 11:14:29;;;;;;;9.60;7.10;;;8.40;1.00;;;;;;4985522;28;20439;-54
2022/12/28 11:16:55;;;;;;;10.30;7.80;;;8.40;1.00;;;;;;4989898;28;20840;-54
2022/12/28 11:19:22;;;;;;;9.70;8.03;;;8.40;1.00;;;;;;4991554;28;20483;-53
2022/12/28 11:21:48;;;;;;;10.60;7.50;;;8.40;1.00;;;;;;4992978;28;20298;-55
2022/12/28 11:24:15;;;;;;;9.63;6.47;;;8.40;1.00;;;;;;4992789;28;20510;-55
2022/12/28 11:26:48;;;;;;;9.50;6.90;;;8.40;1.00;;;;;;4975252;28;20204;-58
2022/12/28 11:29:16;;;;;;;8.93;7.13;;;8.40;1.00;;;;;;4986879;28;20881;-55
2022/12/28 11:31:59;;;;;;;12.10;7.67;;;8.40;1.00;;;;;;4992254;28;20436;-54
2022/12/28 11:34:27;;;;;;;9.00;7.07;;;8.50;1.00;;;;;;4992768;28;20454;-56
2022/12/28 11:36:53;;;;;;;8.70;7.07;;;8.40;1.00;;;;;;4990957;28;20797;-55
2022/12/28 11:39:24;;;;;;;11.67;8.00;;;8.40;1.00;;;;;;4992701;28;20454;-56
2022/12/28 11:41:51;;;;;;;7.53;6.47;;;8.40;1.00;;;;;;4993026;28;20238;-64
2022/12/28 11:44:40;;;;;;;7.10;6.40;;;8.40;1.00;;;;;;4971139;28;20447;-57
2022/12/28 11:47:14;;;;;;;7.30;6.17;;;8.40;1.00;;;;;;4974785;28;20856;-57
2022/12/28 11:49:40;;;;;;;6.70;6.00;;;8.40;1.00;;;;;;4986099;28;20500;-54
2022/12/28 11:52:22;;;;;;;6.33;5.50;;;8.40;6.50;;;;;;4992598;28;20419;-57
2022/12/28 11:54:54;;;;;;;6.53;5.60;;;8.40;10.40;;;;;;4989966;28;20466;-58
2022/12/28 11:57:39;;;;;;;6.50;5.70;;;8.40;13.50;;;;;;4988011;28;20458;-59
2022/12/28 12:00:20;;;;;;;9.13;5.93;;;8.40;18.20;;;;;;4991521;28;20479;-58
2022/12/28 12:02:52;;;;;;;6.17;5.30;;;8.40;24.00;;;;;;4984003;28;20465;-60
2022/12/28 12:05:36;;;;;;;6.53;5.67;;;8.40;28.40;;;;;;4985544;28;20429;-59
2022/12/28 12:08:22;;;;;;;6.10;5.37;;;8.40;35.80;;;;;;4988167;28;20443;-58
2022/12/28 12:11:08;;;;;;;7.33;5.03;;;8.40;45.40;;;;;;4984511;28;20452;-58
2022/12/28 12:13:43;;;;;;;7.10;5.00;;;8.40;47.40;;;;;;4989944;28;20451;-58
2022/12/28 12:16:42;;;;;;;6.87;5.40;;;8.40;48.20;;;;;;4989443;28;20939;-57
2022/12/28 12:19:26;;;;;;;7.70;6.10;;;8.40;45.00;;;;;;4989799;28;20511;-56
2022/12/28 12:22:02;;;;;;;5.97;5.23;;;8.40;42.50;;;;;;4989947;28;20525;-55
2022/12/28 12:24:36;;;;;;;5.33;4.67;;;8.40;38.20;;;;;;4982535;28;20522;-56
2022/12/28 12:27:12;;;;;;;5.50;4.90;;;8.40;31.00;;;;;;4990110;28;20450;-57
2022/12/28 12:29:47;;;;;;;6.97;4.10;;;8.50;27.40;;;;;;4973683;28;20465;-56
2022/12/28 12:32:25;;;;;;;5.00;4.50;;;8.50;21.70;;;;;;4992070;28;20536;-55
2022/12/28 12:35:04;;;;;;;5.30;4.63;;;8.50;17.20;;;;;;4991070;28;20933;-57
2022/12/28 12:37:48;;;;;;;4.87;4.37;;;8.50;17.70;;;;;;4992049;28;20852;-58
2022/12/28 12:40:20;;;;;;;5.83;4.87;;;8.50;19.40;;;;;;4990795;28;20443;-57
2022/12/28 12:43:15;;;;;;;6.20;5.23;;;8.50;21.60;;;;;;4975004;28;20549;-57
2022/12/28 12:45:53;;;;;;;7.03;5.87;;;8.50;27.00;;;;;;4982701;28;20415;-57
2022/12/28 12:48:33;;;;;;;7.33;5.90;;;8.50;31.20;;;;;;4972806;28;20999;-56
2022/12/28 12:51:33;;;;;;;6.60;5.27;;;8.50;41.20;;;;;;4987663;28;20467;-58
2022/12/28 12:54:43;;;;;;;7.70;5.87;;;8.50;50.00;;;;;;4968901;28;20471;-57
2022/12/28 12:57:15;;;;;;;6.10;5.43;;;8.50;53.80;;;;;;4961750;28;20438;-56
2022/12/28 12:59:53;;;;;;;6.50;5.50;;;8.50;52.90;;;;;;4984045;28;20485;-56
2022/12/28 13:02:37;;;;;;;6.20;5.60;;;8.50;53.60;;;;;;4984955;28;20633;-57
2022/12/28 13:05:03;;;;;;;6.33;5.40;;;8.50;57.20;;;;;;4991211;28;20447;-57
2022/12/28 13:07:30;;;;;;;6.20;5.30;;;8.50;57.20;;;;;;4987507;28;20436;-57
2022/12/28 13:10:02;;;;;;;7.30;5.80;;;8.50;60.40;;;;;;4981796;28;20858;-57
2022/12/28 13:12:27;;;;;;;7.50;5.57;;;8.50;62.90;;;;;;4966397;28;20538;-59
2022/12/28 13:15:02;;;;;;;5.70;5.00;;;8.60;71.60;;;;;;4976942;28;20448;-64
2022/12/28 13:17:29;;;;;;;7.67;5.53;;;8.50;77.70;;;;;;4986256;28;20870;-56
2022/12/28 13:20:08;;;;;;;6.00;5.30;;;8.60;84.60;;;;;;4990261;28;20435;-61
2022/12/28 13:22:33;;;;;;;7.20;5.73;;;8.60;89.20;;;;;;4988583;28;20494;-63
2022/12/28 13:24:59;;;;;;;10.57;6.57;;;8.60;91.10;;;;;;4983017;28;21039;-64
2022/12/28 13:27:33;;;;;;;8.23;6.63;;;8.60;95.00;;;;;;4982133;28;20645;-66
2022/12/28 13:30:00;;;;;;;7.33;6.53;;;8.60;98.30;;;;;;4974408;28;20660;-69
2022/12/28 13:32:27;;;;;;;8.80;7.30;;;8.60;99.90;;;;;;4976615;28;20455;-70
2022/12/28 13:34:53;;;;;;;8.47;6.27;;;8.60;99.90;;;;;;4975885;28;20847;-68
2022/12/28 13:37:20;;;;;;;11.10;7.20;;;8.60;99.90;;;;;;4967021;28;20483;-67
2022/12/28 13:39:47;;;;;;;8.70;6.90;;;8.70;99.90;;;;;;4968465;28;20447;-66
2022/12/28 13:42:32;;;;;;;7.80;6.90;;;8.60;99.90;;;;;;4958558;28;20522;-66
2022/12/28 13:45:06;;;;;;;6.60;5.90;;;8.70;99.90;;;;;;4975158;28;21275;-64
2022/12/28 13:47:36;;;;;;;7.83;6.20;;;8.70;99.90;;;;;;4966021;28;20443;-63